sensor_id;sensor_type;location;lat;lon;timestamp;pressure;altitude;pressure_sealevel;temperature;humidity
50105;BME280;47690;39.202;-77.198;2023-04-23T00:01:58;99492.34;;;45.60;11.74
50105;BME280;47690;39.202;-77.198;2023-04-23T00:04:36;99467.66;;;45.30;11.69
50105;BME280;47690;39.202;-77.198;2023-04-23T00:08:13;99427.47;;;46.03;12.10
50105;BME280;47690;39.202;-77.198;2023-04-23T00:12:21;99438.00;;;47.00;11.00
50105;BME280;47690;39.202;-77.198;2023-04-23T00:19:22;99478.91;;;46.50;11.02
50105;BME280;47690;39.202;-77.198;2023-04-23T00:21:56;99502.44;;;45.38;12.14
50105;BME280;47690;39.202;-77.198;2023-04-23T00:24:28;99495.66;;;45.15;12.22
50105;BME280;47690;39.202;-77.198;2023-04-23T00:26:58;99485.63;;;45.15;11.70
50105;BME280;47690;39.202;-77.198;2023-04-23T00:29:29;99506.91;;;46.05;11.16
50105;BME280;47690;39.202;-77.198;2023-04-23T00:32:00;99527.03;;;46.04;11.29
50105;BME280;47690;39.202;-77.198;2023-04-23T00:34:31;99548.53;;;46.06;11.43
50105;BME280;47690;39.202;-77.198;2023-04-23T00:37:06;99569.22;;;46.02;11.53
50105;BME280;47690;39.202;-77.198;2023-04-23T00:39:36;99584.75;;;45.91;11.20
50105;BME280;47690;39.202;-77.198;2023-04-23T00:42:06;99591.03;;;45.96;11.62
50105;BME280;47690;39.202;-77.198;2023-04-23T00:44:42;99584.75;;;45.96;11.13
50105;BME280;47690;39.202;-77.198;2023-04-23T00:47:16;99573.34;;;45.78;11.70
50105;BME280;47690;39.202;-77.198;2023-04-23T00:49:50;99566.03;;;45.68;11.76
50105;BME280;47690;39.202;-77.198;2023-04-23T00:52:21;99553.25;;;45.53;11.69
50105;BME280;47690;39.202;-77.198;2023-04-23T00:54:50;99536.41;;;45.46;11.79
50105;BME280;47690;39.202;-77.198;2023-04-23T00:57:25;99527.72;;;45.49;11.68
50105;BME280;47690;39.202;-77.198;2023-04-23T00:59:56;99531.50;;;45.53;11.99
50105;BME280;47690;39.202;-77.198;2023-04-23T01:02:33;99526.66;;;45.19;11.92
50105;BME280;47690;39.202;-77.198;2023-04-23T01:05:13;99532.88;;;45.04;12.11
50105;BME280;47690;39.202;-77.198;2023-04-23T01:07:49;99541.28;;;45.54;12.11
50105;BME280;47690;39.202;-77.198;2023-04-23T01:10:25;99575.53;;;45.61;11.23
50105;BME280;47690;39.202;-77.198;2023-04-23T01:12:56;99579.63;;;45.22;12.17
50105;BME280;47690;39.202;-77.198;2023-04-23T01:15:29;99596.19;;;45.10;12.20
50105;BME280;47690;39.202;-77.198;2023-04-23T01:18:00;99605.94;;;44.90;11.68
50105;BME280;47690;39.202;-77.198;2023-04-23T01:20:30;99598.81;;;44.79;12.14
50105;BME280;47690;39.202;-77.198;2023-04-23T01:23:02;99597.31;;;45.55;11.89
50105;BME280;47690;39.202;-77.198;2023-04-23T01:25:32;99610.31;;;45.17;11.59
50105;BME280;47690;39.202;-77.198;2023-04-23T01:28:02;99617.88;;;44.89;12.33
50105;BME280;47690;39.202;-77.198;2023-04-23T01:30:32;99624.88;;;44.69;12.11
50105;BME280;47690;39.202;-77.198;2023-04-23T01:33:03;99627.06;;;44.72;12.21
50105;BME280;47690;39.202;-77.198;2023-04-23T01:35:34;99619.72;;;44.73;12.36
50105;BME280;47690;39.202;-77.198;2023-04-23T01:38:08;99629.81;;;44.83;12.27
50105;BME280;47690;39.202;-77.198;2023-04-23T01:40:37;99617.53;;;44.70;11.80
50105;BME280;47690;39.202;-77.198;2023-04-23T01:43:10;99599.81;;;44.57;11.90
50105;BME280;47690;39.202;-77.198;2023-04-23T01:45:40;99588.22;;;44.67;12.25
50105;BME280;47690;39.202;-77.198;2023-04-23T01:48:12;99585.25;;;44.68;12.13
50105;BME280;47690;39.202;-77.198;2023-04-23T01:50:44;99584.44;;;44.73;12.05
50105;BME280;47690;39.202;-77.198;2023-04-23T01:53:17;99569.84;;;45.62;11.94
50105;BME280;47690;39.202;-77.198;2023-04-23T01:55:47;99554.63;;;45.56;11.30
50105;BME280;47690;39.202;-77.198;2023-04-23T01:58:18;99550.41;;;46.10;10.89
50105;BME280;47690;39.202;-77.198;2023-04-23T02:00:54;99562.72;;;44.99;11.96
50105;BME280;47690;39.202;-77.198;2023-04-23T02:03:31;99557.56;;;44.92;11.98
50105;BME280;47690;39.202;-77.198;2023-04-23T02:06:08;99551.00;;;44.72;11.81
50105;BME280;47690;39.202;-77.198;2023-04-23T02:08:38;99554.16;;;44.43;12.27
50105;BME280;47690;39.202;-77.198;2023-04-23T02:11:08;99564.41;;;45.15;11.29
50105;BME280;47690;39.202;-77.198;2023-04-23T02:13:40;99578.19;;;44.78;11.69
50105;BME280;47690;39.202;-77.198;2023-04-23T02:16:10;99574.91;;;44.60;11.94
50105;BME280;47690;39.202;-77.198;2023-04-23T02:18:45;99580.78;;;44.46;12.14
50105;BME280;47690;39.202;-77.198;2023-04-23T02:21:14;99584.81;;;44.33;12.17
50105;BME280;47690;39.202;-77.198;2023-04-23T02:23:45;99579.59;;;44.21;12.07
50105;BME280;47690;39.202;-77.198;2023-04-23T02:26:14;99577.66;;;44.17;12.42
50105;BME280;47690;39.202;-77.198;2023-04-23T02:28:45;99586.94;;;44.21;12.19
50105;BME280;47690;39.202;-77.198;2023-04-23T02:31:14;99583.06;;;44.17;12.50
50105;BME280;47690;39.202;-77.198;2023-04-23T02:33:46;99594.69;;;44.07;12.20
50105;BME280;47690;39.202;-77.198;2023-04-23T02:36:16;99598.78;;;44.04;12.48
50105;BME280;47690;39.202;-77.198;2023-04-23T02:38:45;99591.69;;;44.03;12.22
50105;BME280;47690;39.202;-77.198;2023-04-23T02:41:16;99594.09;;;43.94;12.50
50105;BME280;47690;39.202;-77.198;2023-04-23T02:43:49;99591.94;;;43.97;12.00
50105;BME280;47690;39.202;-77.198;2023-04-23T02:46:18;99592.19;;;43.95;12.17
50105;BME280;47690;39.202;-77.198;2023-04-23T02:48:49;99589.19;;;43.91;12.63
50105;BME280;47690;39.202;-77.198;2023-04-23T02:51:21;99596.22;;;43.87;12.10
50105;BME280;47690;39.202;-77.198;2023-04-23T02:53:50;99590.81;;;43.87;12.47
50105;BME280;47690;39.202;-77.198;2023-04-23T02:56:22;99587.91;;;44.04;12.67
50105;BME280;47690;39.202;-77.198;2023-04-23T02:58:52;99590.09;;;44.07;12.21
50105;BME280;47690;39.202;-77.198;2023-04-23T03:01:22;99593.09;;;44.11;12.14
50105;BME280;47690;39.202;-77.198;2023-04-23T03:03:52;99594.69;;;44.07;12.26
50105;BME280;47690;39.202;-77.198;2023-04-23T03:06:23;99590.84;;;43.98;12.07
50105;BME280;47690;39.202;-77.198;2023-04-23T03:08:54;99593.31;;;43.99;12.60
50105;BME280;47690;39.202;-77.198;2023-04-23T03:11:26;99588.97;;;44.03;12.19
50105;BME280;47690;39.202;-77.198;2023-04-23T03:13:56;99595.16;;;44.42;12.10
50105;BME280;47690;39.202;-77.198;2023-04-23T03:16:27;99585.47;;;44.61;12.16
50105;BME280;47690;39.202;-77.198;2023-04-23T03:18:58;99588.22;;;44.67;11.58
50105;BME280;47690;39.202;-77.198;2023-04-23T03:21:28;99576.47;;;43.97;12.34
50105;BME280;47690;39.202;-77.198;2023-04-23T03:24:00;99568.81;;;43.84;12.52
50105;BME280;47690;39.202;-77.198;2023-04-23T03:26:31;99572.66;;;44.46;11.85
50105;BME280;47690;39.202;-77.198;2023-04-23T03:29:03;99573.69;;;43.82;12.43
50105;BME280;47690;39.202;-77.198;2023-04-23T03:31:58;99572.03;;;43.80;12.54
50105;BME280;47690;39.202;-77.198;2023-04-23T03:34:34;99563.84;;;43.75;12.25
50105;BME280;47690;39.202;-77.198;2023-04-23T03:37:09;99554.41;;;43.83;12.44
50105;BME280;47690;39.202;-77.198;2023-04-23T03:39:46;99556.63;;;43.86;12.52
50105;BME280;47690;39.202;-77.198;2023-04-23T03:42:22;99559.28;;;43.81;12.21
50105;BME280;47690;39.202;-77.198;2023-04-23T03:44:54;99550.78;;;43.67;12.23
50105;BME280;47690;39.202;-77.198;2023-04-23T03:47:24;99552.91;;;43.65;12.45
50105;BME280;47690;39.202;-77.198;2023-04-23T03:49:57;99557.31;;;43.71;12.48
50105;BME280;47690;39.202;-77.198;2023-04-23T03:52:26;99564.63;;;43.71;12.31
50105;BME280;47690;39.202;-77.198;2023-04-23T03:54:56;99561.59;;;43.62;12.20
50105;BME280;47690;39.202;-77.198;2023-04-23T03:57:37;99565.94;;;43.63;12.38
50105;BME280;47690;39.202;-77.198;2023-04-23T04:00:28;99560.81;;;43.66;12.24
50105;BME280;47690;39.202;-77.198;2023-04-23T04:02:58;99578.94;;;43.66;12.18
50105;BME280;47690;39.202;-77.198;2023-04-23T04:05:28;99577.13;;;43.77;12.31
50105;BME280;47690;39.202;-77.198;2023-04-23T04:07:59;99568.66;;;44.06;11.87
50105;BME280;47690;39.202;-77.198;2023-04-23T04:10:30;99573.78;;;43.59;12.24
50105;BME280;47690;39.202;-77.198;2023-04-23T04:12:59;99561.25;;;43.53;12.47
50105;BME280;47690;39.202;-77.198;2023-04-23T04:15:28;99556.63;;;43.48;12.47
50105;BME280;47690;39.202;-77.198;2023-04-23T04:17:58;99566.31;;;43.44;12.53
50105;BME280;47690;39.202;-77.198;2023-04-23T04:20:28;99566.38;;;43.49;12.41
50105;BME280;47690;39.202;-77.198;2023-04-23T04:22:58;99565.00;;;43.47;12.25
50105;BME280;47690;39.202;-77.198;2023-04-23T04:25:27;99555.47;;;43.44;12.40
50105;BME280;47690;39.202;-77.198;2023-04-23T04:27:58;99563.41;;;43.51;12.14
50105;BME280;47690;39.202;-77.198;2023-04-23T04:30:28;99556.28;;;43.39;12.32
50105;BME280;47690;39.202;-77.198;2023-04-23T04:32:58;99546.97;;;43.30;12.29
50105;BME280;47690;39.202;-77.198;2023-04-23T04:35:29;99543.69;;;43.28;12.26
50105;BME280;47690;39.202;-77.198;2023-04-23T04:38:00;99538.28;;;43.28;12.13
50105;BME280;47690;39.202;-77.198;2023-04-23T04:40:28;99540.88;;;43.18;12.29
50105;BME280;47690;39.202;-77.198;2023-04-23T04:42:58;99540.59;;;43.14;12.24
50105;BME280;47690;39.202;-77.198;2023-04-23T04:45:28;99537.78;;;43.69;12.22
50105;BME280;47690;39.202;-77.198;2023-04-23T04:47:58;99546.59;;;43.21;12.36
50105;BME280;47690;39.202;-77.198;2023-04-23T04:50:43;99555.50;;;43.11;12.40
50105;BME280;47690;39.202;-77.198;2023-04-23T04:53:15;99569.88;;;42.90;12.55
50105;BME280;47690;39.202;-77.198;2023-04-23T04:55:46;99575.47;;;42.83;12.68
50105;BME280;47690;39.202;-77.198;2023-04-23T04:58:15;99570.22;;;42.71;12.54
50105;BME280;47690;39.202;-77.198;2023-04-23T05:00:48;99572.94;;;42.71;12.55
50105;BME280;47690;39.202;-77.198;2023-04-23T05:03:20;99577.19;;;42.67;12.67
50105;BME280;47690;39.202;-77.198;2023-04-23T05:05:51;99582.91;;;42.70;12.60
50105;BME280;47690;39.202;-77.198;2023-04-23T05:08:28;99583.44;;;42.67;12.36
50105;BME280;47690;39.202;-77.198;2023-04-23T05:10:58;99582.88;;;42.65;12.67
50105;BME280;47690;39.202;-77.198;2023-04-23T05:13:30;99591.50;;;42.62;12.80
50105;BME280;47690;39.202;-77.198;2023-04-23T05:16:01;99598.22;;;42.59;12.64
50105;BME280;47690;39.202;-77.198;2023-04-23T05:18:30;99601.97;;;42.53;12.23
50105;BME280;47690;39.202;-77.198;2023-04-23T05:21:02;99600.63;;;42.56;12.50
50105;BME280;47690;39.202;-77.198;2023-04-23T05:23:32;99597.69;;;43.67;11.93
50105;BME280;47690;39.202;-77.198;2023-04-23T05:26:04;99598.84;;;42.89;12.27
50105;BME280;47690;39.202;-77.198;2023-04-23T05:28:32;99587.91;;;42.56;12.54
50105;BME280;47690;39.202;-77.198;2023-04-23T05:31:01;99591.56;;;42.45;12.51
50105;BME280;47690;39.202;-77.198;2023-04-23T05:33:30;99590.09;;;42.37;12.66
50105;BME280;47690;39.202;-77.198;2023-04-23T05:36:16;99592.25;;;42.57;12.72
50105;BME280;47690;39.202;-77.198;2023-04-23T05:38:48;99592.78;;;42.54;12.84
50105;BME280;47690;39.202;-77.198;2023-04-23T05:41:18;99596.38;;;43.10;12.27
50105;BME280;47690;39.202;-77.198;2023-04-23T05:43:47;99595.53;;;42.59;12.15
50105;BME280;47690;39.202;-77.198;2023-04-23T05:46:18;99599.06;;;42.60;12.31
50105;BME280;47690;39.202;-77.198;2023-04-23T05:48:48;99596.28;;;42.55;12.44
50105;BME280;47690;39.202;-77.198;2023-04-23T05:51:18;99589.09;;;42.66;12.33
50105;BME280;47690;39.202;-77.198;2023-04-23T05:53:48;99596.22;;;42.50;12.85
50105;BME280;47690;39.202;-77.198;2023-04-23T05:56:18;99583.25;;;42.52;12.44
50105;BME280;47690;39.202;-77.198;2023-04-23T05:58:48;99579.91;;;42.44;12.42
50105;BME280;47690;39.202;-77.198;2023-04-23T06:01:18;99579.06;;;42.44;12.58
50105;BME280;47690;39.202;-77.198;2023-04-23T06:03:47;99572.56;;;42.40;12.42
50105;BME280;47690;39.202;-77.198;2023-04-23T06:06:18;99572.34;;;42.46;12.49
50105;BME280;47690;39.202;-77.198;2023-04-23T06:08:51;99574.75;;;42.65;12.22
50105;BME280;47690;39.202;-77.198;2023-04-23T06:11:24;99576.16;;;42.68;12.34
50105;BME280;47690;39.202;-77.198;2023-04-23T06:13:52;99588.84;;;42.67;12.20
50105;BME280;47690;39.202;-77.198;2023-04-23T06:16:24;99577.88;;;42.35;12.48
50105;BME280;47690;39.202;-77.198;2023-04-23T06:18:57;99578.72;;;42.35;12.56
50105;BME280;47690;39.202;-77.198;2023-04-23T06:21:28;99571.28;;;42.25;12.54
50105;BME280;47690;39.202;-77.198;2023-04-23T06:24:00;99575.56;;;42.43;12.67
50105;BME280;47690;39.202;-77.198;2023-04-23T06:26:30;99576.97;;;42.46;12.30
50105;BME280;47690;39.202;-77.198;2023-04-23T06:29:09;99575.44;;;43.33;11.85
50105;BME280;47690;39.202;-77.198;2023-04-23T06:31:50;99577.47;;;42.93;11.79
50105;BME280;47690;39.202;-77.198;2023-04-23T06:34:19;99567.63;;;42.37;12.41
50105;BME280;47690;39.202;-77.198;2023-04-23T06:36:50;99574.59;;;42.10;12.41
50105;BME280;47690;39.202;-77.198;2023-04-23T06:39:19;99578.03;;;42.05;12.57
50105;BME280;47690;39.202;-77.198;2023-04-23T06:41:52;99579.25;;;42.15;12.37
50105;BME280;47690;39.202;-77.198;2023-04-23T06:44:34;99582.66;;;42.27;12.47
50105;BME280;47690;39.202;-77.198;2023-04-23T06:47:05;99579.78;;;42.79;11.96
50105;BME280;47690;39.202;-77.198;2023-04-23T06:49:34;99580.91;;;42.38;12.15
50105;BME280;47690;39.202;-77.198;2023-04-23T06:52:03;99575.84;;;43.19;11.54
50105;BME280;47690;39.202;-77.198;2023-04-23T06:54:32;99582.44;;;42.29;12.17
50105;BME280;47690;39.202;-77.198;2023-04-23T06:57:02;99579.88;;;42.22;12.49
50105;BME280;47690;39.202;-77.198;2023-04-23T06:59:35;99573.63;;;42.39;12.22
50105;BME280;47690;39.202;-77.198;2023-04-23T07:02:06;99565.34;;;42.28;12.31
50105;BME280;47690;39.202;-77.198;2023-04-23T07:04:41;99579.69;;;42.96;12.44
50105;BME280;47690;39.202;-77.198;2023-04-23T07:07:13;99581.22;;;42.20;12.07
50105;BME280;47690;39.202;-77.198;2023-04-23T07:09:51;99580.41;;;42.02;12.11
50105;BME280;47690;39.202;-77.198;2023-04-23T07:12:25;99585.28;;;42.22;12.18
50105;BME280;47690;39.202;-77.198;2023-04-23T07:14:57;99579.84;;;42.00;12.09
50105;BME280;47690;39.202;-77.198;2023-04-23T07:17:34;99577.56;;;41.91;12.05
50105;BME280;47690;39.202;-77.198;2023-04-23T07:20:09;99571.91;;;42.77;11.57
50105;BME280;47690;39.202;-77.198;2023-04-23T07:22:53;99573.38;;;43.12;11.31
50105;BME280;47690;39.202;-77.198;2023-04-23T07:25:26;99563.03;;;43.09;11.25
50105;BME280;47690;39.202;-77.198;2023-04-23T07:27:57;99568.53;;;42.92;11.37
50105;BME280;47690;39.202;-77.198;2023-04-23T07:30:33;99565.97;;;42.80;11.28
50105;BME280;47690;39.202;-77.198;2023-04-23T07:33:05;99570.22;;;42.71;11.50
50105;BME280;47690;39.202;-77.198;2023-04-23T07:35:36;99567.75;;;42.47;11.59
50105;BME280;47690;39.202;-77.198;2023-04-23T07:38:09;99571.97;;;42.82;11.38
50105;BME280;47690;39.202;-77.198;2023-04-23T07:40:47;99573.63;;;42.89;11.25
50105;BME280;47690;39.202;-77.198;2023-04-23T07:43:19;99570.06;;;42.83;11.31
50105;BME280;47690;39.202;-77.198;2023-04-23T07:45:52;99569.97;;;42.72;11.26
50105;BME280;47690;39.202;-77.198;2023-04-23T07:48:24;99563.97;;;42.70;11.30
50105;BME280;47690;39.202;-77.198;2023-04-23T07:50:57;99557.31;;;42.56;11.44
50105;BME280;47690;39.202;-77.198;2023-04-23T07:53:27;99562.19;;;42.54;11.19
50105;BME280;47690;39.202;-77.198;2023-04-23T07:56:25;99576.88;;;42.85;10.89
50105;BME280;47690;39.202;-77.198;2023-04-23T07:59:03;99579.03;;;42.61;11.28
50105;BME280;47690;39.202;-77.198;2023-04-23T08:01:37;99585.94;;;42.52;11.28
50105;BME280;47690;39.202;-77.198;2023-04-23T08:04:10;99596.25;;;41.59;11.64
50105;BME280;47690;39.202;-77.198;2023-04-23T08:06:42;99586.00;;;41.15;11.77
50105;BME280;47690;39.202;-77.198;2023-04-23T08:09:17;99604.22;;;40.90;11.94
50105;BME280;47690;39.202;-77.198;2023-04-23T08:11:50;99594.94;;;40.86;12.46
50105;BME280;47690;39.202;-77.198;2023-04-23T08:14:21;99591.69;;;40.84;12.00
50105;BME280;47690;39.202;-77.198;2023-04-23T08:16:54;99602.56;;;40.89;12.32
50105;BME280;47690;39.202;-77.198;2023-04-23T08:19:26;99599.66;;;40.79;11.91
50105;BME280;47690;39.202;-77.198;2023-04-23T08:22:04;99607.63;;;40.86;11.88
50105;BME280;47690;39.202;-77.198;2023-04-23T08:24:37;99604.75;;;41.50;12.02
50105;BME280;47690;39.202;-77.198;2023-04-23T08:27:34;99610.34;;;41.95;11.42
50105;BME280;47690;39.202;-77.198;2023-04-23T08:30:18;99617.50;;;42.07;11.15
50105;BME280;47690;39.202;-77.198;2023-04-23T08:32:51;99623.69;;;41.85;11.28
50105;BME280;47690;39.202;-77.198;2023-04-23T08:35:29;99609.59;;;41.83;11.26
50105;BME280;47690;39.202;-77.198;2023-04-23T08:38:01;99624.69;;;41.78;11.29
50105;BME280;47690;39.202;-77.198;2023-04-23T08:40:35;99627.31;;;41.73;11.20
50105;BME280;47690;39.202;-77.198;2023-04-23T08:43:43;99624.50;;;42.02;11.37
50105;BME280;47690;39.202;-77.198;2023-04-23T08:46:25;99626.56;;;41.95;11.04
50105;BME280;47690;39.202;-77.198;2023-04-23T08:49:06;99632.81;;;41.78;11.35
50105;BME280;47690;39.202;-77.198;2023-04-23T08:51:51;99636.56;;;41.77;11.31
50105;BME280;47690;39.202;-77.198;2023-04-23T08:54:29;99624.53;;;41.68;11.48
50105;BME280;47690;39.202;-77.198;2023-04-23T08:57:18;99630.22;;;41.55;11.66
50105;BME280;47690;39.202;-77.198;2023-04-23T08:59:50;99626.81;;;41.30;11.53
50105;BME280;47690;39.202;-77.198;2023-04-23T09:02:45;99630.13;;;41.32;11.45
50105;BME280;47690;39.202;-77.198;2023-04-23T09:05:31;99637.41;;;41.32;11.23
50105;BME280;47690;39.202;-77.198;2023-04-23T09:08:06;99646.06;;;41.05;11.88
50105;BME280;47690;39.202;-77.198;2023-04-23T09:10:43;99655.09;;;41.10;11.73
50105;BME280;47690;39.202;-77.198;2023-04-23T09:14:09;99645.84;;;41.53;11.10
50105;BME280;47690;39.202;-77.198;2023-04-23T09:16:46;99654.03;;;41.41;11.08
50105;BME280;47690;39.202;-77.198;2023-04-23T09:19:18;99656.47;;;41.25;11.36
50105;BME280;47690;39.202;-77.198;2023-04-23T09:22:00;99660.00;;;41.14;11.68
50105;BME280;47690;39.202;-77.198;2023-04-23T09:24:48;99664.19;;;41.21;11.33
50105;BME280;47690;39.202;-77.198;2023-04-23T09:27:23;99661.94;;;41.01;11.33
50105;BME280;47690;39.202;-77.198;2023-04-23T09:29:59;99663.34;;;40.92;11.86
50105;BME280;47690;39.202;-77.198;2023-04-23T09:32:35;99669.19;;;40.48;11.46
50105;BME280;47690;39.202;-77.198;2023-04-23T09:35:09;99666.56;;;40.77;11.42
50105;BME280;47690;39.202;-77.198;2023-04-23T09:37:48;99666.06;;;40.92;11.59
50105;BME280;47690;39.202;-77.198;2023-04-23T09:40:22;99673.50;;;40.61;11.98
50105;BME280;47690;39.202;-77.198;2023-04-23T09:42:55;99666.00;;;41.04;11.59
50105;BME280;47690;39.202;-77.198;2023-04-23T09:45:32;99679.94;;;40.83;11.66
50105;BME280;47690;39.202;-77.198;2023-04-23T09:48:14;99679.22;;;40.88;11.68
50105;BME280;47690;39.202;-77.198;2023-04-23T09:50:53;99679.78;;;41.02;11.39
50105;BME280;47690;39.202;-77.198;2023-04-23T09:53:25;99672.78;;;40.06;12.16
50105;BME280;47690;39.202;-77.198;2023-04-23T09:55:59;99678.72;;;39.84;12.55
50105;BME280;47690;39.202;-77.198;2023-04-23T09:58:33;99680.88;;;39.63;12.56
50105;BME280;47690;39.202;-77.198;2023-04-23T10:01:13;99688.59;;;39.59;12.22
50105;BME280;47690;39.202;-77.198;2023-04-23T10:03:54;99693.56;;;40.41;11.59
50105;BME280;47690;39.202;-77.198;2023-04-23T10:06:29;99692.75;;;40.40;11.71
50105;BME280;47690;39.202;-77.198;2023-04-23T10:09:17;99701.44;;;40.42;11.24
50105;BME280;47690;39.202;-77.198;2023-04-23T10:11:59;99700.97;;;40.46;11.69
50105;BME280;47690;39.202;-77.198;2023-04-23T10:14:34;99709.41;;;40.61;11.23
50105;BME280;47690;39.202;-77.198;2023-04-23T10:17:09;99709.16;;;40.39;11.68
50105;BME280;47690;39.202;-77.198;2023-04-23T10:19:43;99706.34;;;40.69;11.42
50105;BME280;47690;39.202;-77.198;2023-04-23T10:22:27;99711.06;;;40.50;11.29
50105;BME280;47690;39.202;-77.198;2023-04-23T10:25:07;99718.66;;;40.65;11.48
50105;BME280;47690;39.202;-77.198;2023-04-23T10:27:48;99729.22;;;40.67;11.09
50105;BME280;47690;39.202;-77.198;2023-04-23T10:30:22;99737.25;;;40.19;11.41
50105;BME280;47690;39.202;-77.198;2023-04-23T10:32:57;99738.88;;;40.08;11.73
50105;BME280;47690;39.202;-77.198;2023-04-23T10:36:05;99745.75;;;39.80;11.32
50105;BME280;47690;39.202;-77.198;2023-04-23T10:38:39;99748.78;;;39.34;11.88
50105;BME280;47690;39.202;-77.198;2023-04-23T10:41:33;99752.00;;;38.87;12.22
50105;BME280;47690;39.202;-77.198;2023-04-23T10:44:11;99751.34;;;39.48;11.87
50105;BME280;47690;39.202;-77.198;2023-04-23T10:47:17;99758.50;;;39.54;11.69
50105;BME280;47690;39.202;-77.198;2023-04-23T10:49:53;99765.84;;;38.91;11.94
50105;BME280;47690;39.202;-77.198;2023-04-23T10:52:31;99763.16;;;39.47;12.02
50105;BME280;47690;39.202;-77.198;2023-04-23T10:55:21;99774.09;;;39.52;11.36
50105;BME280;47690;39.202;-77.198;2023-04-23T10:58:06;99773.63;;;39.55;11.45
50105;BME280;47690;39.202;-77.198;2023-04-23T11:00:49;99779.16;;;39.42;11.74
50105;BME280;47690;39.202;-77.198;2023-04-23T11:03:35;99783.97;;;39.58;11.57
50105;BME280;47690;39.202;-77.198;2023-04-23T11:09:40;99792.00;;;38.84;11.82
50105;BME280;47690;39.202;-77.198;2023-04-23T11:15:29;99802.00;;;39.02;11.86
50105;BME280;47690;39.202;-77.198;2023-04-23T11:18:03;99816.00;;;39.29;11.57
50105;BME280;47690;39.202;-77.198;2023-04-23T11:20:37;99820.94;;;38.63;11.94
50105;BME280;47690;39.202;-77.198;2023-04-23T11:23:29;99824.91;;;39.48;11.99
50105;BME280;47690;39.202;-77.198;2023-04-23T11:26:37;99834.59;;;38.87;12.09
50105;BME280;47690;39.202;-77.198;2023-04-23T11:29:23;99836.53;;;39.24;11.98
50105;BME280;47690;39.202;-77.198;2023-04-23T11:31:57;99856.59;;;38.84;12.28
50105;BME280;47690;39.202;-77.198;2023-04-23T11:34:34;99852.91;;;38.78;12.31
50105;BME280;47690;39.202;-77.198;2023-04-23T11:37:08;99846.53;;;39.79;11.71
50105;BME280;47690;39.202;-77.198;2023-04-23T11:39:53;99854.22;;;40.25;11.42
50105;BME280;47690;39.202;-77.198;2023-04-23T11:42:25;99846.41;;;40.35;11.70
50105;BME280;47690;39.202;-77.198;2023-04-23T11:45:01;99847.84;;;40.50;11.74
50105;BME280;47690;39.202;-77.198;2023-04-23T11:47:37;99850.66;;;40.55;11.63
50105;BME280;47690;39.202;-77.198;2023-04-23T11:50:28;99854.59;;;39.79;12.39
50105;BME280;47690;39.202;-77.198;2023-04-23T11:53:10;99853.47;;;40.06;12.41
50105;BME280;47690;39.202;-77.198;2023-04-23T11:55:52;99852.97;;;40.09;12.01
50105;BME280;47690;39.202;-77.198;2023-04-23T11:58:33;99850.28;;;40.39;12.30
50105;BME280;47690;39.202;-77.198;2023-04-23T12:01:03;99856.88;;;40.13;12.59
50105;BME280;47690;39.202;-77.198;2023-04-23T12:03:33;99855.47;;;40.10;12.01
50105;BME280;47690;39.202;-77.198;2023-04-23T12:06:03;99853.88;;;40.33;12.27
50105;BME280;47690;39.202;-77.198;2023-04-23T12:08:33;99851.25;;;40.45;12.29
50105;BME280;47690;39.202;-77.198;2023-04-23T12:11:04;99850.41;;;40.56;11.90
50105;BME280;47690;39.202;-77.198;2023-04-23T12:14:06;99844.34;;;40.73;11.88
50105;BME280;47690;39.202;-77.198;2023-04-23T12:17:26;99842.94;;;41.30;11.72
50105;BME280;47690;39.202;-77.198;2023-04-23T12:20:18;99851.94;;;42.01;11.49
50105;BME280;47690;39.202;-77.198;2023-04-23T12:23:11;99869.59;;;41.91;11.39
50105;BME280;47690;39.202;-77.198;2023-04-23T12:25:55;99864.56;;;41.42;11.68
50105;BME280;47690;39.202;-77.198;2023-04-23T12:28:29;99863.75;;;41.30;11.60
50105;BME280;47690;39.202;-77.198;2023-04-23T12:31:01;99864.19;;;41.50;11.78
50105;BME280;47690;39.202;-77.198;2023-04-23T12:33:37;99866.91;;;41.50;12.10
50105;BME280;47690;39.202;-77.198;2023-04-23T12:36:27;99862.16;;;41.70;11.55
50105;BME280;47690;39.202;-77.198;2023-04-23T12:39:40;99865.13;;;42.26;11.65
50105;BME280;47690;39.202;-77.198;2023-04-23T12:42:17;99871.25;;;41.92;11.62
50105;BME280;47690;39.202;-77.198;2023-04-23T12:44:48;99863.88;;;41.88;11.93
50105;BME280;47690;39.202;-77.198;2023-04-23T12:47:20;99870.34;;;41.87;11.55
50105;BME280;47690;39.202;-77.198;2023-04-23T12:49:50;99866.47;;;41.83;11.56
50105;BME280;47690;39.202;-77.198;2023-04-23T12:52:28;99865.00;;;41.92;11.52
50105;BME280;47690;39.202;-77.198;2023-04-23T12:55:06;99867.72;;;41.92;11.45
50105;BME280;47690;39.202;-77.198;2023-04-23T12:57:42;99872.38;;;41.97;11.64
50105;BME280;47690;39.202;-77.198;2023-04-23T13:00:15;99864.03;;;41.98;11.50
50105;BME280;47690;39.202;-77.198;2023-04-23T13:02:58;99865.78;;;42.34;11.01
50105;BME280;47690;39.202;-77.198;2023-04-23T13:05:37;99874.47;;;42.36;11.00
50105;BME280;47690;39.202;-77.198;2023-04-23T13:08:08;99869.31;;;42.05;11.28
50105;BME280;47690;39.202;-77.198;2023-04-23T13:10:37;99872.59;;;42.07;11.19
50105;BME280;47690;39.202;-77.198;2023-04-23T13:13:15;99877.34;;;42.29;11.23
50105;BME280;47690;39.202;-77.198;2023-04-23T13:15:53;99887.72;;;42.20;11.33
50105;BME280;47690;39.202;-77.198;2023-04-23T13:18:24;99889.88;;;42.18;11.17
50105;BME280;47690;39.202;-77.198;2023-04-23T13:21:00;99892.56;;;42.18;11.34
50105;BME280;47690;39.202;-77.198;2023-04-23T13:24:04;99884.19;;;43.00;10.69
50105;BME280;47690;39.202;-77.198;2023-04-23T13:26:36;99881.47;;;42.66;10.99
50105;BME280;47690;39.202;-77.198;2023-04-23T13:29:10;99883.66;;;42.35;11.18
50105;BME280;47690;39.202;-77.198;2023-04-23T13:31:50;99876.44;;;42.23;10.85
50105;BME280;47690;39.202;-77.198;2023-04-23T13:34:21;99887.63;;;42.15;10.98
50105;BME280;47690;39.202;-77.198;2023-04-23T13:36:51;99880.13;;;42.05;11.07